Aérodrome :
LOGIN :

S'inscrire | Disclaimer

   EN    FR    IT 

 










Légende :    VFR   VFR Marginal   IFR   IFR Intensif   IFR Très Intensif
Visi : 
Plafond : 
>= 8 km
>= 3000ft
5 à 8 km
1000 à 3000 ft
1500m à 5 km
500 à 1000 ft
800 à 1500m
200 à 500 ft
< 800m
< 200 ft
Symboles :   Orages  Brouillard  Fortes neiges  Fortes précipitations  Vent > 20 kt
SIGMETs :   Divers  Orages  Givrage  Turbulence  Onde Orograph.  Cendres Volcan.







- Altitude de l'aérodrome : 228 ft
- Code IATA : OPO


LPPR - Porto Fr. Sa Carneiro

DERNIER METAR :
  • 211330Z 26006KT 220V310 CAVOK 18/04 Q1026

METARs EXPIRÉS :
  • 211300Z 11004KT 040V160 CAVOK 19/01 Q1026
  • 211230Z 13005KT 070V170 CAVOK 19/02 Q1026
  • 211200Z 13005KT 040V190 CAVOK 19/03 Q1027
  • 211130Z 11008KT CAVOK 17/02 Q1027
  • 211100Z 09007KT 040V170 CAVOK 16/03 Q1027
  • 211030Z 09009KT 060V120 CAVOK 16/02 Q1027

TAF TAF LPPR
Valide du 21 à 12h jusqu'au 22 à 12h UTC


211100Z 2112/2212 09010KT CAVOK
BECMG 2113/2115 30010KT
BECMG 2118/2121 VRB03KT
BECMG 2123/2201 09010KT
Pas de NOTAMs connus pour ce terrain.



MET'MAP, la Météo Aéronautique d'un coup d'oeil ! - Copyright ORBIFLY Décembre 2007 - Disclaimer

ORBIFLY MET'MAP TEAM :

Programmation & Développement : Alexandra Zaïnal
Conception & Développement : Baudouin d'Aumeries
Co-Programmation & Développement : Marc-Olivier Méhu
Soutien technique & logistique : Manuel Goepfert

Contact : metmap@orbifly.com




SOURCES & CREDITS :

   NOAA